createdAt,value
2022-12-24T00:00:24.129Z,7.67
2022-12-24T00:01:24.099Z,7.63
2022-12-24T00:02:24.226Z,7.73
2022-12-24T00:03:24.288Z,7.70
2022-12-24T00:04:24.067Z,7.58
2022-12-24T00:05:24.053Z,7.63
2022-12-24T00:06:24.110Z,7.57
2022-12-24T00:07:24.087Z,7.57
2022-12-24T00:08:24.028Z,7.63
2022-12-24T00:09:24.023Z,7.57
2022-12-24T00:10:24.027Z,7.63
2022-12-24T00:11:24.010Z,7.66
2022-12-24T00:12:23.999Z,7.60
2022-12-24T00:13:24.010Z,7.66
2022-12-24T00:14:23.997Z,7.69
2022-12-24T00:15:23.993Z,7.66
2022-12-24T00:16:24.015Z,7.61
2022-12-24T00:17:23.974Z,7.54
2022-12-24T00:18:23.967Z,7.58
2022-12-24T00:19:23.968Z,7.66
2022-12-24T00:20:23.954Z,7.63
2022-12-24T00:21:23.949Z,7.60
2022-12-24T00:22:23.944Z,7.58
2022-12-24T00:23:23.952Z,7.61
2022-12-24T00:24:23.931Z,7.53
2022-12-24T00:25:23.938Z,7.57
2022-12-24T00:26:23.940Z,7.51
2022-12-24T00:27:23.933Z,7.61
2022-12-24T00:28:23.906Z,7.54
2022-12-24T00:29:23.902Z,7.60
2022-12-24T00:30:23.888Z,7.66
2022-12-24T00:31:23.994Z,7.60
2022-12-24T00:32:23.872Z,7.57
2022-12-24T00:33:24.821Z,7.51
2022-12-24T00:34:23.885Z,7.53
2022-12-24T00:35:23.862Z,7.54
2022-12-24T00:36:23.887Z,7.53
2022-12-24T00:37:23.860Z,7.53
2022-12-24T00:38:23.855Z,7.48
2022-12-24T00:39:23.828Z,7.51
2022-12-24T00:40:23.829Z,7.56
2022-12-24T00:41:23.819Z,7.53
2022-12-24T00:42:23.810Z,7.51
2022-12-24T00:43:23.800Z,7.48
2022-12-24T00:44:23.827Z,7.54
2022-12-24T00:45:23.787Z,7.53
2022-12-24T00:46:23.863Z,7.56
2022-12-24T00:47:23.774Z,7.58
2022-12-24T00:48:23.782Z,7.50
2022-12-24T00:49:23.759Z,7.47
2022-12-24T00:50:23.764Z,7.54
2022-12-24T00:51:23.812Z,7.50
2022-12-24T00:52:23.744Z,7.56
2022-12-24T00:53:23.764Z,7.51
2022-12-24T00:54:23.731Z,7.43
2022-12-24T00:55:23.733Z,7.47
2022-12-24T00:56:23.740Z,7.43
2022-12-24T00:57:23.773Z,7.45
2022-12-24T00:58:23.714Z,7.47
2022-12-24T00:59:23.734Z,7.47
2022-12-24T01:00:23.699Z,7.43
2022-12-24T01:01:23.984Z,7.43
2022-12-24T01:02:23.863Z,7.40
2022-12-24T01:03:23.738Z,7.47
2022-12-24T01:04:23.666Z,7.48
2022-12-24T01:05:23.659Z,7.40
2022-12-24T01:06:23.662Z,7.40
2022-12-24T01:07:23.645Z,7.40
2022-12-24T01:08:23.652Z,7.42
2022-12-24T01:09:23.667Z,7.43
2022-12-24T01:10:23.648Z,7.39
2022-12-24T01:11:23.670Z,7.39
2022-12-24T01:12:23.615Z,7.50
2022-12-24T01:13:23.598Z,7.45
2022-12-24T01:14:23.631Z,7.43
2022-12-24T01:15:23.611Z,7.43
2022-12-24T01:16:23.704Z,7.48
2022-12-24T01:17:23.656Z,7.40
2022-12-24T01:18:23.578Z,7.45
2022-12-24T01:19:23.566Z,7.43
2022-12-24T01:20:23.555Z,7.51
2022-12-24T01:21:23.559Z,7.42
2022-12-24T01:22:23.548Z,7.47
2022-12-24T01:23:23.537Z,7.43
2022-12-24T01:24:23.535Z,7.43
2022-12-24T01:25:23.530Z,7.43
2022-12-24T01:26:23.525Z,7.50
2022-12-24T01:27:23.518Z,7.39
2022-12-24T01:28:23.508Z,7.47
2022-12-24T01:29:23.506Z,7.42
2022-12-24T01:30:23.492Z,7.38
2022-12-24T01:31:23.552Z,7.45
2022-12-24T01:32:23.481Z,7.42
2022-12-24T01:33:23.530Z,7.39
2022-12-24T01:34:23.466Z,7.40
2022-12-24T01:35:23.461Z,7.47
2022-12-24T01:36:23.463Z,7.43
2022-12-24T01:37:23.444Z,7.45
2022-12-24T01:38:23.461Z,7.40
2022-12-24T01:39:23.452Z,7.40
2022-12-24T01:40:23.424Z,7.45
2022-12-24T01:41:23.439Z,7.47
2022-12-24T01:42:23.412Z,7.50
2022-12-24T01:43:23.409Z,7.53
2022-12-24T01:44:23.406Z,7.56
2022-12-24T01:45:23.393Z,7.56
2022-12-24T01:46:23.510Z,7.48
2022-12-24T01:47:23.383Z,7.57
2022-12-24T01:48:23.379Z,7.54
2022-12-24T01:49:23.382Z,7.43
2022-12-24T01:50:23.369Z,7.51
2022-12-24T01:51:23.394Z,7.54
2022-12-24T01:52:23.345Z,7.50
2022-12-24T01:53:23.343Z,7.53
2022-12-24T01:54:23.328Z,7.50
2022-12-24T01:55:23.339Z,7.53
2022-12-24T01:56:23.324Z,7.53
2022-12-24T01:57:23.313Z,7.56
2022-12-24T01:58:23.308Z,7.54
2022-12-24T01:59:23.326Z,7.54
2022-12-24T02:00:23.325Z,7.53
2022-12-24T02:01:23.445Z,7.47
2022-12-24T02:02:23.435Z,7.60
2022-12-24T02:03:23.345Z,7.61
2022-12-24T02:04:23.279Z,7.66
2022-12-24T02:05:23.264Z,7.50
2022-12-24T02:06:23.260Z,7.58
2022-12-24T02:07:23.258Z,7.66
2022-12-24T02:08:23.246Z,7.61
2022-12-24T02:09:23.257Z,7.60
2022-12-24T02:10:23.241Z,7.66
2022-12-24T02:11:23.214Z,7.53
2022-12-24T02:12:23.213Z,7.51
2022-12-24T02:13:23.209Z,7.51
2022-12-24T02:14:23.206Z,7.58
2022-12-24T02:15:23.200Z,7.58
2022-12-24T02:16:23.239Z,7.54
2022-12-24T02:17:23.191Z,7.54
2022-12-24T02:18:23.175Z,7.61
2022-12-24T02:19:23.196Z,7.53
2022-12-24T02:20:23.156Z,7.63
2022-12-24T02:21:23.166Z,7.50
2022-12-24T02:22:23.175Z,7.53
2022-12-24T02:23:23.163Z,7.53
2022-12-24T02:24:23.245Z,7.53
2022-12-24T02:25:23.135Z,7.66
2022-12-24T02:26:23.232Z,7.66
2022-12-24T02:27:23.150Z,7.66
2022-12-24T02:28:23.145Z,7.60
2022-12-24T02:29:23.137Z,7.60
2022-12-24T02:30:23.096Z,7.56
2022-12-24T02:31:23.229Z,7.63
2022-12-24T02:32:23.083Z,7.66
2022-12-24T02:33:23.089Z,7.69
2022-12-24T02:34:23.070Z,7.63
2022-12-24T02:35:23.071Z,7.63
2022-12-24T02:36:23.056Z,7.60
2022-12-24T02:37:23.053Z,7.58
2022-12-24T02:38:23.057Z,7.58
2022-12-24T02:39:23.050Z,7.60
2022-12-24T02:40:23.033Z,7.63
2022-12-24T02:41:23.045Z,7.66
2022-12-24T02:42:23.012Z,7.60
2022-12-24T02:43:23.034Z,7.66
2022-12-24T02:44:23.019Z,7.63
2022-12-24T02:45:23.003Z,7.67
2022-12-24T02:46:23.026Z,7.60
2022-12-24T02:47:22.986Z,7.58
2022-12-24T02:48:22.996Z,7.60
2022-12-24T02:49:22.989Z,7.60
2022-12-24T02:50:22.958Z,7.60
2022-12-24T02:51:22.984Z,7.53
2022-12-24T02:52:22.954Z,7.58
2022-12-24T02:53:22.956Z,7.56
2022-12-24T02:54:22.932Z,7.56
2022-12-24T02:55:22.962Z,7.60
2022-12-24T02:56:22.922Z,7.58
2022-12-24T02:57:22.919Z,7.51
2022-12-24T02:58:22.911Z,7.60
2022-12-24T02:59:22.961Z,7.53
2022-12-24T03:00:22.962Z,7.66
2022-12-24T03:01:23.015Z,7.60
2022-12-24T03:02:23.014Z,7.66
2022-12-24T03:03:22.879Z,7.61
2022-12-24T03:04:22.891Z,7.63
2022-12-24T03:05:22.873Z,7.67
2022-12-24T03:06:22.863Z,7.60
2022-12-24T03:07:22.857Z,7.58
2022-12-24T03:08:22.857Z,7.63
2022-12-24T03:09:22.856Z,7.57
2022-12-24T03:10:22.839Z,7.61
2022-12-24T03:11:22.840Z,7.61
2022-12-24T03:12:22.822Z,7.60
2022-12-24T03:13:22.928Z,7.63
2022-12-24T03:14:22.823Z,7.60
2022-12-24T03:15:22.800Z,7.57
2022-12-24T03:16:22.871Z,7.69
2022-12-24T03:17:22.809Z,7.66
2022-12-24T03:18:22.784Z,7.58
2022-12-24T03:19:22.774Z,7.63
2022-12-24T03:20:22.773Z,7.58
2022-12-24T03:21:22.760Z,7.67
2022-12-24T03:22:22.747Z,7.60
2022-12-24T03:23:22.768Z,7.66
2022-12-24T03:24:22.737Z,7.63
2022-12-24T03:25:22.739Z,7.67
2022-12-24T03:26:22.745Z,7.60
2022-12-24T03:27:22.731Z,7.63
2022-12-24T03:28:22.724Z,7.60
2022-12-24T03:29:22.730Z,7.63
2022-12-24T03:30:22.697Z,7.69
2022-12-24T03:31:22.764Z,7.54
2022-12-24T03:32:22.686Z,7.57
2022-12-24T03:33:22.689Z,7.58
2022-12-24T03:34:22.676Z,7.63
2022-12-24T03:35:22.685Z,7.63
2022-12-24T03:36:22.679Z,7.67
2022-12-24T03:37:22.666Z,7.56
2022-12-24T03:38:22.645Z,7.61
2022-12-24T03:39:22.657Z,7.63
2022-12-24T03:40:22.652Z,7.63
2022-12-24T03:41:22.632Z,7.56
2022-12-24T03:42:22.625Z,7.63
2022-12-24T03:43:22.630Z,7.60
2022-12-24T03:44:22.613Z,7.66
2022-12-24T03:45:22.647Z,7.58
2022-12-24T03:46:22.823Z,7.58
2022-12-24T03:47:22.610Z,7.63
2022-12-24T03:48:26.006Z,7.70
2022-12-24T03:49:22.593Z,7.67
2022-12-24T03:50:22.632Z,7.66
2022-12-24T03:51:22.578Z,7.66
2022-12-24T03:52:22.567Z,7.63
2022-12-24T03:53:22.556Z,7.63
2022-12-24T03:54:22.557Z,7.61
2022-12-24T03:55:22.541Z,7.60
2022-12-24T03:56:22.539Z,7.61
2022-12-24T03:57:22.537Z,7.66
2022-12-24T03:58:22.539Z,7.66
2022-12-24T03:59:22.569Z,7.58
2022-12-24T04:00:22.525Z,7.60
2022-12-24T04:01:22.656Z,7.60
2022-12-24T04:02:22.686Z,7.60
2022-12-24T04:03:22.554Z,7.66
2022-12-24T04:04:22.486Z,7.58
2022-12-24T04:05:22.508Z,7.60
2022-12-24T04:06:22.467Z,7.63
2022-12-24T04:07:22.465Z,7.67
2022-12-24T04:08:22.459Z,7.61
2022-12-24T04:09:22.466Z,7.54
2022-12-24T04:10:22.444Z,7.60
2022-12-24T04:11:22.441Z,7.57
2022-12-24T04:12:22.446Z,7.56
2022-12-24T04:13:22.435Z,7.60
2022-12-24T04:14:22.413Z,7.63
2022-12-24T04:15:22.425Z,7.63
2022-12-24T04:16:22.473Z,7.61
2022-12-24T04:17:22.404Z,7.63
2022-12-24T04:18:22.388Z,7.63
2022-12-24T04:19:22.393Z,7.66
2022-12-24T04:20:22.368Z,7.63
2022-12-24T04:21:22.373Z,7.60
2022-12-24T04:22:22.366Z,7.61
2022-12-24T04:23:22.385Z,7.61
2022-12-24T04:24:22.380Z,7.69
2022-12-24T04:25:22.344Z,7.66
2022-12-24T04:26:22.387Z,7.61
2022-12-24T04:27:26.809Z,7.70
2022-12-24T04:28:22.324Z,7.75
2022-12-24T04:29:22.358Z,7.72
2022-12-24T04:30:22.310Z,7.63
2022-12-24T04:31:22.352Z,7.72
2022-12-24T04:32:22.295Z,7.82
2022-12-24T04:33:22.291Z,7.76
2022-12-24T04:34:22.346Z,7.76
2022-12-24T04:35:22.300Z,7.72
2022-12-24T04:36:22.276Z,7.69
2022-12-24T04:37:22.280Z,7.72
2022-12-24T04:38:22.264Z,7.82
2022-12-24T04:39:22.255Z,7.87
2022-12-24T04:40:22.240Z,7.87
2022-12-24T04:41:24.155Z,7.80
2022-12-24T04:42:22.261Z,7.75
2022-12-24T04:43:22.228Z,7.82
2022-12-24T04:44:22.227Z,7.79
2022-12-24T04:45:22.220Z,7.82
2022-12-24T04:46:22.356Z,7.85
2022-12-24T04:47:22.234Z,7.82
2022-12-24T04:48:22.195Z,7.82
2022-12-24T04:49:22.207Z,7.87
2022-12-24T04:50:22.183Z,7.79
2022-12-24T04:51:22.185Z,7.90
2022-12-24T04:52:22.165Z,7.83
2022-12-24T04:53:22.167Z,7.90
2022-12-24T04:54:22.174Z,7.77
2022-12-24T04:55:22.144Z,7.80
2022-12-24T04:56:22.145Z,7.85
2022-12-24T04:57:22.148Z,7.95
2022-12-24T04:58:22.133Z,7.93
2022-12-24T04:59:22.137Z,7.85
2022-12-24T05:00:22.141Z,7.82
2022-12-24T05:01:22.204Z,7.77
2022-12-24T05:02:22.229Z,7.73
2022-12-24T05:03:22.193Z,7.72
2022-12-24T05:04:22.096Z,7.79
2022-12-24T05:05:22.086Z,7.82
2022-12-24T05:06:22.089Z,7.82
2022-12-24T05:07:22.096Z,7.77
2022-12-24T05:08:22.163Z,7.85
2022-12-24T05:09:22.058Z,7.83
2022-12-24T05:10:22.070Z,7.80
2022-12-24T05:11:22.053Z,7.87
2022-12-24T05:12:22.046Z,7.77
2022-12-24T05:13:22.046Z,7.85
2022-12-24T05:14:22.019Z,7.79
2022-12-24T05:15:22.029Z,7.85
2022-12-24T05:16:22.127Z,7.76
2022-12-24T05:17:22.011Z,7.82
2022-12-24T05:18:22.001Z,7.75
2022-12-24T05:19:21.997Z,7.70
2022-12-24T05:20:21.985Z,7.73
2022-12-24T05:21:22.009Z,7.73
2022-12-24T05:22:21.974Z,7.75
2022-12-24T05:23:21.989Z,7.79
2022-12-24T05:24:21.987Z,7.79
2022-12-24T05:25:21.962Z,7.82
2022-12-24T05:26:21.955Z,7.88
2022-12-24T05:27:21.959Z,7.91
2022-12-24T05:28:21.989Z,7.76
2022-12-24T05:29:21.945Z,7.77
2022-12-24T05:30:21.920Z,7.79
2022-12-24T05:31:21.978Z,7.79
2022-12-24T05:32:21.923Z,7.82
2022-12-24T05:33:21.907Z,7.80
2022-12-24T05:34:21.898Z,7.75
2022-12-24T05:35:21.907Z,7.83
2022-12-24T05:36:21.883Z,7.80
2022-12-24T05:37:21.879Z,7.76
2022-12-24T05:38:21.882Z,7.73
2022-12-24T05:39:21.873Z,7.73
2022-12-24T05:40:21.869Z,7.87
2022-12-24T05:41:21.893Z,7.88
2022-12-24T05:42:21.847Z,7.87
2022-12-24T05:43:21.840Z,7.79
2022-12-24T05:44:21.839Z,7.82
2022-12-24T05:45:21.835Z,7.87
2022-12-24T05:46:21.931Z,7.85
2022-12-24T05:47:21.820Z,7.87
2022-12-24T05:48:21.850Z,7.87
2022-12-24T05:49:21.813Z,7.91
2022-12-24T05:50:21.804Z,7.83
2022-12-24T05:51:21.795Z,7.82
2022-12-24T05:52:21.787Z,7.76
2022-12-24T05:53:28.972Z,7.80
2022-12-24T05:55:25.773Z,7.77
2022-12-24T05:56:25.784Z,7.90
2022-12-24T05:58:29.786Z,7.87
2022-12-24T05:59:29.768Z,7.79
2022-12-24T06:01:33.820Z,7.73
2022-12-24T06:02:33.810Z,7.79
2022-12-24T06:04:29.047Z,7.69
2022-12-24T06:05:26.629Z,7.72
2022-12-24T06:07:30.622Z,7.76
2022-12-24T06:08:30.597Z,7.75
2022-12-24T06:10:35.057Z,7.72
2022-12-24T06:11:34.580Z,7.70
2022-12-24T06:13:38.562Z,7.77
2022-12-24T06:14:38.547Z,7.73
2022-12-24T06:16:42.552Z,7.77
2022-12-24T06:17:42.506Z,7.70
2022-12-24T06:18:42.504Z,7.75
2022-12-24T06:19:42.491Z,7.73
2022-12-24T06:20:42.501Z,7.75
2022-12-24T06:21:42.493Z,7.63
2022-12-24T06:22:42.490Z,7.60
2022-12-24T06:23:42.476Z,7.61
2022-12-24T06:24:42.463Z,7.76
2022-12-24T06:25:42.467Z,7.70
2022-12-24T06:26:42.456Z,7.76
2022-12-24T06:27:42.447Z,7.76
2022-12-24T06:28:42.441Z,7.76
2022-12-24T06:29:42.425Z,7.82
2022-12-24T06:30:42.438Z,7.72
2022-12-24T06:31:42.522Z,7.80
2022-12-24T06:32:42.422Z,7.73
2022-12-24T06:33:42.402Z,7.79
2022-12-24T06:34:42.402Z,7.72
2022-12-24T06:35:42.394Z,7.82
2022-12-24T06:36:42.401Z,7.87
2022-12-24T06:37:42.478Z,7.82
2022-12-24T06:38:42.390Z,7.79
2022-12-24T06:39:42.369Z,7.82
2022-12-24T06:40:42.384Z,7.83
2022-12-24T06:41:42.367Z,7.87
2022-12-24T06:42:42.358Z,7.82
2022-12-24T06:43:42.336Z,7.75
2022-12-24T06:44:42.349Z,7.87
2022-12-24T06:45:42.336Z,7.77
2022-12-24T06:46:42.491Z,7.75
2022-12-24T06:47:42.348Z,7.77
2022-12-24T06:48:42.321Z,7.79
2022-12-24T06:49:42.324Z,7.90
2022-12-24T06:50:42.415Z,7.87
2022-12-24T06:51:42.301Z,7.85
2022-12-24T06:52:42.315Z,7.83
2022-12-24T06:53:42.275Z,7.85
2022-12-24T06:54:42.332Z,7.77
2022-12-24T06:55:42.267Z,7.76
2022-12-24T06:56:42.255Z,7.77
2022-12-24T06:57:42.251Z,7.79
2022-12-24T06:58:42.248Z,7.79
2022-12-24T06:59:42.241Z,7.80
2022-12-24T07:00:42.262Z,7.83
2022-12-24T07:01:42.342Z,7.80
2022-12-24T07:02:42.302Z,7.82
2022-12-24T07:03:42.302Z,7.75
2022-12-24T07:04:42.239Z,7.88
2022-12-24T07:05:42.228Z,7.83
2022-12-24T07:06:42.237Z,7.83
2022-12-24T07:07:42.195Z,7.77
2022-12-24T07:08:42.189Z,7.88
2022-12-24T07:09:42.175Z,7.90
2022-12-24T07:10:42.171Z,7.93
2022-12-24T07:11:42.186Z,7.88
2022-12-24T07:12:42.149Z,7.91
2022-12-24T07:13:42.144Z,7.79
2022-12-24T07:14:42.169Z,7.88
2022-12-24T07:15:42.266Z,7.91
2022-12-24T07:16:42.254Z,7.90
2022-12-24T07:17:42.171Z,7.88
2022-12-24T07:18:42.128Z,7.75
2022-12-24T07:19:42.102Z,7.82
2022-12-24T07:20:42.098Z,7.82
2022-12-24T07:21:42.096Z,7.87
2022-12-24T07:22:42.088Z,7.87
2022-12-24T07:23:42.090Z,7.87
2022-12-24T07:24:42.071Z,7.85
2022-12-24T07:25:42.056Z,7.93
2022-12-24T07:26:42.069Z,7.87
2022-12-24T07:27:42.048Z,7.90
2022-12-24T07:28:42.041Z,7.85
2022-12-24T07:29:42.040Z,7.77
2022-12-24T07:30:42.054Z,7.79
2022-12-24T07:31:42.070Z,7.79
2022-12-24T07:32:42.046Z,7.83
2022-12-24T07:33:42.017Z,7.93
2022-12-24T07:34:42.009Z,7.88
2022-12-24T07:35:42.062Z,7.82
2022-12-24T07:36:42.003Z,7.82
2022-12-24T07:37:42.033Z,7.85
2022-12-24T07:38:42.015Z,7.82
2022-12-24T07:39:41.983Z,7.87
2022-12-24T07:40:41.961Z,7.85
2022-12-24T07:41:42.110Z,7.88
2022-12-24T07:42:41.961Z,7.93
2022-12-24T07:43:41.955Z,7.80
2022-12-24T07:44:41.955Z,7.91
2022-12-24T07:45:41.926Z,7.90
2022-12-24T07:46:41.993Z,7.93
2022-12-24T07:47:41.928Z,7.87
2022-12-24T07:48:41.934Z,7.88
2022-12-24T07:49:41.925Z,7.94
2022-12-24T07:50:41.926Z,7.82
2022-12-24T07:51:41.885Z,7.97
2022-12-24T07:52:41.901Z,7.90
2022-12-24T07:53:41.905Z,7.98
2022-12-24T07:54:41.879Z,8.00
2022-12-24T07:55:41.872Z,7.90
2022-12-24T07:56:41.857Z,7.94
2022-12-24T07:57:41.845Z,7.98
2022-12-24T07:58:41.866Z,7.93
2022-12-24T07:59:41.837Z,7.97
2022-12-24T08:00:41.835Z,7.91
2022-12-24T08:01:42.038Z,7.95
2022-12-24T08:02:41.950Z,7.95
2022-12-24T08:03:41.900Z,7.95
2022-12-24T08:04:41.821Z,7.97
2022-12-24T08:05:41.800Z,7.97
2022-12-24T08:06:41.815Z,7.93
2022-12-24T08:07:41.791Z,7.94
2022-12-24T08:08:41.786Z,7.97
2022-12-24T08:09:41.777Z,7.93
2022-12-24T08:10:41.774Z,7.91
2022-12-24T08:11:46.300Z,7.93
2022-12-24T08:12:41.768Z,7.98
2022-12-24T08:13:41.749Z,7.95
2022-12-24T08:14:41.751Z,7.91
2022-12-24T08:15:41.745Z,7.91
2022-12-24T08:16:41.857Z,7.85
2022-12-24T08:17:41.721Z,7.87
2022-12-24T08:18:41.729Z,7.93
2022-12-24T08:19:41.726Z,7.90
2022-12-24T08:20:41.730Z,7.90
2022-12-24T08:21:41.689Z,7.85
2022-12-24T08:22:41.722Z,7.87
2022-12-24T08:23:41.675Z,7.85
2022-12-24T08:24:41.673Z,7.82
2022-12-24T08:25:41.681Z,7.85
2022-12-24T08:26:41.664Z,7.91
2022-12-24T08:27:41.679Z,7.88
2022-12-24T08:28:41.670Z,7.87
2022-12-24T08:29:41.644Z,7.98
2022-12-24T08:30:41.645Z,7.97
2022-12-24T08:31:41.717Z,7.95
2022-12-24T08:32:41.653Z,8.00
2022-12-24T08:33:41.629Z,7.90
2022-12-24T08:34:41.653Z,7.94
2022-12-24T08:35:41.601Z,7.91
2022-12-24T08:36:41.613Z,7.93
2022-12-24T08:37:41.607Z,7.93
2022-12-24T08:38:41.590Z,7.94
2022-12-24T08:39:41.579Z,7.98
2022-12-24T08:40:41.571Z,7.98
2022-12-24T08:41:41.568Z,7.90
2022-12-24T08:42:41.627Z,7.97
2022-12-24T08:43:41.551Z,7.94
2022-12-24T08:44:41.551Z,7.95
2022-12-24T08:45:41.621Z,7.83
2022-12-24T08:46:41.588Z,7.85
2022-12-24T08:47:41.531Z,7.87
2022-12-24T08:48:41.524Z,7.90
2022-12-24T08:49:41.542Z,7.95
2022-12-24T08:50:41.503Z,7.87
2022-12-24T08:51:41.505Z,7.88
2022-12-24T08:52:41.486Z,7.90
2022-12-24T08:53:41.503Z,7.95
2022-12-24T08:54:41.485Z,7.91
2022-12-24T08:55:41.468Z,7.94
2022-12-24T08:56:41.472Z,7.98
2022-12-24T08:57:41.470Z,7.93
2022-12-24T08:58:41.464Z,8.00
2022-12-24T08:59:41.451Z,7.88
2022-12-24T09:00:41.480Z,7.87
2022-12-24T09:01:41.532Z,7.85
2022-12-24T09:02:41.644Z,7.80
2022-12-24T09:03:41.470Z,7.91
2022-12-24T09:04:41.421Z,7.95
2022-12-24T09:05:41.414Z,7.90
2022-12-24T09:06:41.399Z,7.97
2022-12-24T09:07:41.405Z,7.90
2022-12-24T09:08:41.396Z,7.98
2022-12-24T09:09:41.386Z,7.94
2022-12-24T09:10:41.382Z,7.90
2022-12-24T09:11:41.398Z,7.94
2022-12-24T09:12:41.369Z,8.00
2022-12-24T09:13:41.360Z,7.95
2022-12-24T09:14:41.367Z,7.93
2022-12-24T09:15:41.358Z,7.95
2022-12-24T09:16:41.452Z,7.87
2022-12-24T09:17:41.336Z,7.97
2022-12-24T09:18:41.364Z,7.93
2022-12-24T09:19:41.321Z,7.91
2022-12-24T09:20:46.562Z,7.95
2022-12-24T09:21:41.294Z,8.06
2022-12-24T09:22:41.305Z,7.98
2022-12-24T09:23:41.302Z,8.01
2022-12-24T09:24:41.304Z,8.03
2022-12-24T09:25:41.288Z,8.06
2022-12-24T09:26:41.284Z,8.08
2022-12-24T09:27:41.264Z,8.13
2022-12-24T09:28:41.269Z,8.05
2022-12-24T09:29:41.241Z,8.03
2022-12-24T09:30:41.258Z,8.05
2022-12-24T09:31:41.268Z,8.05
2022-12-24T09:32:41.249Z,8.15
2022-12-24T09:33:41.228Z,8.13
2022-12-24T09:34:41.226Z,8.03
2022-12-24T09:35:41.207Z,8.09
2022-12-24T09:36:41.236Z,8.09
2022-12-24T09:37:41.201Z,8.15
2022-12-24T09:38:41.226Z,8.12
2022-12-24T09:39:41.215Z,8.23
2022-12-24T09:40:41.200Z,8.15
2022-12-24T09:41:41.192Z,8.16
2022-12-24T09:42:41.182Z,8.13
2022-12-24T09:43:41.171Z,8.15
2022-12-24T09:44:41.156Z,8.12
2022-12-24T09:45:41.243Z,8.12
2022-12-24T09:46:41.162Z,8.15
2022-12-24T09:47:41.135Z,8.10
2022-12-24T09:48:41.143Z,8.15
2022-12-24T09:49:41.150Z,8.19
2022-12-24T09:50:41.117Z,8.15
2022-12-24T09:51:41.139Z,8.24
2022-12-24T09:52:41.115Z,8.20
2022-12-24T09:53:41.100Z,8.19
2022-12-24T09:54:45.978Z,8.27
2022-12-24T09:55:41.087Z,8.30
2022-12-24T09:56:41.087Z,8.33
2022-12-24T09:57:41.079Z,8.34
2022-12-24T09:58:41.069Z,8.41
2022-12-24T09:59:41.066Z,8.41
2022-12-24T10:00:46.050Z,8.33
2022-12-24T10:01:41.163Z,8.36
2022-12-24T10:02:41.208Z,8.37
2022-12-24T10:03:41.109Z,8.37
2022-12-24T10:04:41.027Z,8.31
2022-12-24T10:05:41.034Z,8.41
2022-12-24T10:06:41.017Z,8.33
2022-12-24T10:07:41.013Z,8.42
2022-12-24T10:08:41.000Z,8.42
2022-12-24T10:09:40.993Z,8.44
2022-12-24T10:10:41.025Z,8.46
2022-12-24T10:11:40.997Z,8.37
2022-12-24T10:12:45.928Z,8.42
2022-12-24T10:13:40.975Z,8.38
2022-12-24T10:14:40.966Z,8.51
2022-12-24T10:15:40.987Z,8.45
2022-12-24T10:16:41.000Z,8.38
2022-12-24T10:17:40.953Z,8.45
2022-12-24T10:18:45.615Z,8.52
2022-12-24T10:19:40.951Z,8.48
2022-12-24T10:20:40.943Z,8.49
2022-12-24T10:21:40.948Z,8.52
2022-12-24T10:22:40.918Z,8.52
2022-12-24T10:23:40.924Z,8.51
2022-12-24T10:24:46.372Z,8.49
2022-12-24T10:25:40.905Z,8.53
2022-12-24T10:26:40.918Z,8.51
2022-12-24T10:27:40.895Z,8.63
2022-12-24T10:28:40.902Z,8.61
2022-12-24T10:29:40.889Z,8.61
2022-12-24T10:30:40.931Z,8.61
2022-12-24T10:31:40.875Z,8.60
2022-12-24T10:32:40.861Z,8.70
2022-12-24T10:33:40.890Z,8.61
2022-12-24T10:34:40.851Z,8.64
2022-12-24T10:35:40.869Z,8.69
2022-12-24T10:36:40.834Z,8.64
2022-12-24T10:37:40.850Z,8.64
2022-12-24T10:38:40.824Z,8.71
2022-12-24T10:39:40.829Z,8.69
2022-12-24T10:40:40.816Z,8.64
2022-12-24T10:41:40.819Z,8.63
2022-12-24T10:42:46.292Z,8.66
2022-12-24T10:43:40.856Z,8.70
2022-12-24T10:44:40.810Z,8.63
2022-12-24T10:45:40.874Z,8.73
2022-12-24T10:46:40.876Z,8.76
2022-12-24T10:47:40.782Z,8.73
2022-12-24T10:48:46.404Z,8.78
2022-12-24T10:49:40.799Z,8.66
2022-12-24T10:50:40.770Z,8.70
2022-12-24T10:51:40.765Z,8.69
2022-12-24T10:52:40.747Z,8.71
2022-12-24T10:53:40.736Z,8.71
2022-12-24T10:54:40.764Z,8.79
2022-12-24T10:55:40.725Z,8.79
2022-12-24T10:56:40.724Z,8.76
2022-12-24T10:57:40.720Z,8.87
2022-12-24T10:58:40.731Z,8.79
2022-12-24T10:59:40.714Z,8.91
2022-12-24T11:00:40.707Z,8.91
2022-12-24T11:01:40.842Z,8.92
2022-12-24T11:02:40.911Z,8.87
2022-12-24T11:03:40.727Z,8.99
2022-12-24T11:04:40.670Z,8.91
2022-12-24T11:05:40.666Z,8.89
2022-12-24T11:06:44.719Z,8.95
2022-12-24T11:07:40.682Z,8.94
2022-12-24T11:08:40.687Z,8.95
2022-12-24T11:09:40.637Z,8.97
2022-12-24T11:10:40.638Z,9.03
2022-12-24T11:11:40.627Z,8.99
2022-12-24T11:12:40.636Z,8.94
2022-12-24T11:13:40.610Z,8.95
2022-12-24T11:14:40.662Z,8.99
2022-12-24T11:15:40.627Z,8.89
2022-12-24T11:16:40.609Z,8.94
2022-12-24T11:17:40.610Z,8.97
2022-12-24T11:18:45.137Z,8.95
2022-12-24T11:19:40.604Z,8.97
2022-12-24T11:20:40.602Z,8.91
2022-12-24T11:21:40.578Z,9.06
2022-12-24T11:22:40.584Z,8.99
2022-12-24T11:23:40.565Z,8.94
2022-12-24T11:24:45.093Z,8.97
2022-12-24T11:25:40.553Z,8.97
2022-12-24T11:26:40.551Z,8.95
2022-12-24T11:27:40.547Z,9.00
2022-12-24T11:28:40.566Z,9.08
2022-12-24T11:29:40.525Z,9.02
2022-12-24T11:30:40.581Z,9.00
2022-12-24T11:31:40.530Z,9.02
2022-12-24T11:32:40.518Z,9.11
2022-12-24T11:33:40.504Z,9.10
2022-12-24T11:34:40.491Z,9.13
2022-12-24T11:35:40.491Z,9.11
2022-12-24T11:36:40.499Z,9.21
2022-12-24T11:37:40.556Z,9.21
2022-12-24T11:38:40.471Z,9.19
2022-12-24T11:39:40.480Z,9.16
2022-12-24T11:40:40.579Z,9.19
2022-12-24T11:41:40.467Z,9.19
2022-12-24T11:42:40.449Z,9.22
2022-12-24T11:43:40.450Z,9.22
2022-12-24T11:44:40.439Z,9.22
2022-12-24T11:45:40.441Z,9.26
2022-12-24T11:46:40.455Z,9.26
2022-12-24T11:47:40.486Z,9.31
2022-12-24T11:48:40.412Z,9.22
2022-12-24T11:49:40.415Z,9.26
2022-12-24T11:50:40.426Z,9.32
2022-12-24T11:51:40.420Z,9.29
2022-12-24T11:52:40.421Z,9.21
2022-12-24T11:53:40.392Z,9.26
2022-12-24T11:54:40.415Z,9.25
2022-12-24T11:55:40.378Z,9.16
2022-12-24T11:56:40.424Z,9.21
2022-12-24T11:57:40.378Z,9.11
2022-12-24T11:58:40.359Z,9.18
2022-12-24T11:59:40.357Z,9.11
2022-12-24T12:00:40.349Z,9.11
2022-12-24T12:01:40.436Z,9.11
2022-12-24T12:02:40.396Z,9.11
2022-12-24T12:03:40.465Z,9.16
2022-12-24T12:04:40.327Z,9.10
2022-12-24T12:05:40.335Z,9.10
2022-12-24T12:06:40.328Z,9.11
2022-12-24T12:07:40.313Z,9.18
2022-12-24T12:08:40.323Z,9.19
2022-12-24T12:09:40.308Z,9.23
2022-12-24T12:10:40.305Z,9.22
2022-12-24T12:11:40.335Z,9.21
2022-12-24T12:12:40.298Z,9.18
2022-12-24T12:13:40.288Z,9.23
2022-12-24T12:14:40.272Z,9.16
2022-12-24T12:15:40.287Z,9.22
2022-12-24T12:16:40.323Z,9.22
2022-12-24T12:17:40.253Z,9.21
2022-12-24T12:18:40.253Z,9.25
2022-12-24T12:19:40.244Z,9.29
2022-12-24T12:20:40.247Z,9.32
2022-12-24T12:21:40.241Z,9.25
2022-12-24T12:22:40.262Z,9.23
2022-12-24T12:23:40.243Z,9.28
2022-12-24T12:24:40.256Z,9.32
2022-12-24T12:25:40.252Z,9.36
2022-12-24T12:26:40.201Z,9.36
2022-12-24T12:27:40.206Z,9.34
2022-12-24T12:28:40.193Z,9.39
2022-12-24T12:29:40.190Z,9.43
2022-12-24T12:30:40.194Z,9.40
2022-12-24T12:31:40.217Z,9.43
2022-12-24T12:32:40.235Z,9.40
2022-12-24T12:33:40.171Z,9.40
2022-12-24T12:34:40.168Z,9.41
2022-12-24T12:35:40.208Z,9.41
2022-12-24T12:36:40.161Z,9.40
2022-12-24T12:37:40.161Z,9.34
2022-12-24T12:38:40.170Z,9.39
2022-12-24T12:39:40.135Z,9.43
2022-12-24T12:40:40.126Z,9.48
2022-12-24T12:41:40.127Z,9.47
2022-12-24T12:42:40.126Z,9.46
2022-12-24T12:43:40.118Z,9.47
2022-12-24T12:44:40.115Z,9.50
2022-12-24T12:45:40.121Z,9.50
2022-12-24T12:46:40.171Z,9.50
2022-12-24T12:47:40.112Z,9.50
2022-12-24T12:48:40.082Z,9.50
2022-12-24T12:49:40.106Z,9.48
2022-12-24T12:50:40.072Z,9.50
2022-12-24T12:51:40.068Z,9.54
2022-12-24T12:52:40.061Z,9.58
2022-12-24T12:53:40.061Z,9.54
2022-12-24T12:54:40.082Z,9.48
2022-12-24T12:55:40.088Z,9.55
2022-12-24T12:56:40.059Z,9.50
2022-12-24T12:57:40.060Z,9.51
2022-12-24T12:58:40.037Z,9.50
2022-12-24T12:59:40.040Z,9.55
2022-12-24T13:00:40.065Z,9.51
2022-12-24T13:01:40.201Z,9.54
2022-12-24T13:02:40.225Z,9.46
2022-12-24T13:03:40.032Z,9.59
2022-12-24T13:04:40.011Z,9.54
2022-12-24T13:05:40.002Z,9.62
2022-12-24T13:06:39.998Z,9.51
2022-12-24T13:07:39.982Z,9.58
2022-12-24T13:08:40.001Z,9.64
2022-12-24T13:09:39.969Z,9.61
2022-12-24T13:10:39.978Z,9.66
2022-12-24T13:11:39.962Z,9.65
2022-12-24T13:12:39.956Z,9.61
2022-12-24T13:13:39.966Z,9.64
2022-12-24T13:14:39.943Z,9.69
2022-12-24T13:15:39.936Z,9.59
2022-12-24T13:16:39.984Z,9.68
2022-12-24T13:17:39.927Z,9.73
2022-12-24T13:18:39.931Z,9.66
2022-12-24T13:19:39.938Z,9.69
2022-12-24T13:20:39.931Z,9.79
2022-12-24T13:21:39.912Z,9.73
2022-12-24T13:22:39.903Z,9.77
2022-12-24T13:23:39.896Z,9.73
2022-12-24T13:24:39.902Z,9.66
2022-12-24T13:25:39.901Z,9.72
2022-12-24T13:26:39.877Z,9.80